createdAt,value
2022-12-31T00:00:52.693Z,23.33
2022-12-31T00:03:21.043Z,24.37
2022-12-31T00:05:50.752Z,22.87
2022-12-31T00:08:19.339Z,25.90
2022-12-31T00:10:47.713Z,21.90
2022-12-31T00:13:16.844Z,23.30
2022-12-31T00:15:45.578Z,24.07
2022-12-31T00:18:13.997Z,25.33
2022-12-31T00:20:42.904Z,25.40
2022-12-31T00:23:12.875Z,25.27
2022-12-31T00:25:41.187Z,25.37
2022-12-31T00:28:09.539Z,26.37
2022-12-31T00:30:38.263Z,25.27
2022-12-31T00:33:06.551Z,24.93
2022-12-31T00:35:36.527Z,27.87
2022-12-31T00:38:04.956Z,26.87
2022-12-31T00:40:34.565Z,28.03
2022-12-31T00:43:02.944Z,26.20
2022-12-31T00:45:31.428Z,25.93
2022-12-31T00:47:59.820Z,26.53
2022-12-31T00:50:28.167Z,28.13
2022-12-31T00:52:56.481Z,28.37
2022-12-31T00:55:24.830Z,29.30
2022-12-31T00:57:54.382Z,30.57
2022-12-31T01:00:22.986Z,30.60
2022-12-31T01:02:51.463Z,29.20
2022-12-31T01:05:19.858Z,30.87
2022-12-31T01:07:48.281Z,29.60
2022-12-31T01:10:37.319Z,29.20
2022-12-31T01:13:07.021Z,33.43
2022-12-31T01:15:35.941Z,31.93
2022-12-31T01:18:05.006Z,31.53
2022-12-31T01:20:37.561Z,29.23
2022-12-31T01:23:06.468Z,28.87
2022-12-31T01:25:37.346Z,30.90
2022-12-31T01:28:07.811Z,30.93
2022-12-31T01:30:40.099Z,30.50
2022-12-31T01:33:08.529Z,29.33
2022-12-31T01:35:37.579Z,29.93
2022-12-31T01:38:05.900Z,32.60
2022-12-31T01:40:38.305Z,31.30
2022-12-31T01:43:16.790Z,35.90
2022-12-31T01:45:46.863Z,28.60
2022-12-31T01:48:20.736Z,30.90
2022-12-31T01:50:50.955Z,29.20
2022-12-31T01:53:20.035Z,30.13
2022-12-31T01:55:51.733Z,30.00
2022-12-31T01:58:24.340Z,31.50
2022-12-31T02:00:53.791Z,29.10
2022-12-31T02:03:22.678Z,29.63
2022-12-31T02:05:55.727Z,31.60
2022-12-31T02:08:24.119Z,30.03
2022-12-31T02:10:52.479Z,29.13
2022-12-31T02:13:22.328Z,29.77
2022-12-31T02:15:57.460Z,30.23
2022-12-31T02:18:32.046Z,38.67
2022-12-31T02:21:29.247Z,33.27
2022-12-31T02:24:33.973Z,32.77
2022-12-31T02:27:08.081Z,29.70
2022-12-31T02:30:07.767Z,33.30
2022-12-31T02:32:44.755Z,36.00
2022-12-31T02:35:17.086Z,31.40
2022-12-31T02:37:49.524Z,32.33
2022-12-31T02:40:22.290Z,32.87
2022-12-31T02:42:55.356Z,41.70
2022-12-31T02:45:31.883Z,35.77
2022-12-31T02:48:15.700Z,34.23
2022-12-31T02:50:56.532Z,31.80
2022-12-31T02:53:39.499Z,33.27
2022-12-31T02:56:18.008Z,32.20
2022-12-31T02:59:11.428Z,29.23
2022-12-31T03:02:02.604Z,26.77
2022-12-31T03:04:33.691Z,27.67
2022-12-31T03:07:04.193Z,26.67
2022-12-31T03:09:33.116Z,25.57
2022-12-31T03:12:19.324Z,26.90
2022-12-31T03:14:47.874Z,28.53
2022-12-31T03:17:17.573Z,27.07
2022-12-31T03:20:03.785Z,26.17
2022-12-31T03:22:32.673Z,27.27
2022-12-31T03:25:20.436Z,27.97
2022-12-31T03:27:49.596Z,24.37
2022-12-31T03:30:19.925Z,25.57
2022-12-31T03:32:50.559Z,24.60
2022-12-31T03:35:21.463Z,24.07
2022-12-31T03:37:50.830Z,22.90
2022-12-31T03:40:24.650Z,23.10
2022-12-31T03:42:53.229Z,23.17
2022-12-31T03:45:21.920Z,22.67
2022-12-31T03:47:51.943Z,23.07
2022-12-31T03:50:20.817Z,21.93
2022-12-31T03:52:49.307Z,22.50
2022-12-31T03:55:17.746Z,22.73
2022-12-31T03:57:46.080Z,22.93
2022-12-31T04:00:18.753Z,24.40
2022-12-31T04:02:47.871Z,22.57
2022-12-31T04:05:19.291Z,22.03
2022-12-31T04:07:48.129Z,23.07
2022-12-31T04:10:18.497Z,20.40
2022-12-31T04:12:46.958Z,20.93
2022-12-31T04:15:19.209Z,20.17
2022-12-31T04:17:48.425Z,19.63
2022-12-31T04:20:18.488Z,18.90
2022-12-31T04:22:46.914Z,19.43
2022-12-31T04:25:15.486Z,15.97
2022-12-31T04:27:45.612Z,17.50
2022-12-31T04:30:14.754Z,19.03
2022-12-31T04:32:43.514Z,20.40
2022-12-31T04:35:13.631Z,19.63
2022-12-31T04:37:43.324Z,21.63
2022-12-31T04:40:12.110Z,20.77
2022-12-31T04:42:40.676Z,22.40
2022-12-31T04:45:09.748Z,21.70
2022-12-31T04:47:38.113Z,21.90
2022-12-31T04:50:07.362Z,21.57
2022-12-31T04:52:42.335Z,22.27
2022-12-31T04:55:12.780Z,21.80
2022-12-31T04:57:42.530Z,21.57
2022-12-31T05:00:11.805Z,22.30
2022-12-31T05:02:40.449Z,21.63
2022-12-31T05:05:09.529Z,22.77
2022-12-31T05:07:37.866Z,21.30
2022-12-31T05:10:07.217Z,21.60
2022-12-31T05:12:36.955Z,18.80
2022-12-31T05:15:06.127Z,21.00
2022-12-31T05:17:34.490Z,20.13
2022-12-31T05:20:02.871Z,20.97
2022-12-31T05:22:31.284Z,20.10
2022-12-31T05:25:00.759Z,21.93
2022-12-31T05:27:31.716Z,20.17
2022-12-31T05:30:01.697Z,21.90
2022-12-31T05:32:30.119Z,19.37
2022-12-31T05:34:59.828Z,20.37
2022-12-31T05:37:29.953Z,20.80
2022-12-31T05:39:58.668Z,21.33
2022-12-31T05:42:27.472Z,22.20
2022-12-31T05:44:56.035Z,22.17
2022-12-31T05:47:25.891Z,21.73
2022-12-31T05:49:54.441Z,21.50
2022-12-31T05:52:23.172Z,21.07
2022-12-31T05:54:54.340Z,21.67
2022-12-31T05:57:22.756Z,21.27
2022-12-31T05:59:53.479Z,21.13
2022-12-31T06:02:22.901Z,21.70
2022-12-31T06:04:52.623Z,19.30
2022-12-31T06:07:21.155Z,19.67
2022-12-31T06:09:52.360Z,21.03
2022-12-31T06:12:20.708Z,21.23
2022-12-31T06:14:49.155Z,20.90
2022-12-31T06:17:17.723Z,19.80
2022-12-31T06:19:46.206Z,19.67
2022-12-31T06:22:16.009Z,20.80
2022-12-31T06:24:44.340Z,21.20
2022-12-31T06:27:12.930Z,21.83
2022-12-31T06:29:41.434Z,21.90
2022-12-31T06:32:09.783Z,18.93
2022-12-31T06:34:38.243Z,19.30
2022-12-31T06:37:06.670Z,20.17
2022-12-31T06:39:36.220Z,19.17
2022-12-31T06:42:04.507Z,21.63
2022-12-31T06:44:32.836Z,21.93
2022-12-31T06:47:01.218Z,25.83
2022-12-31T06:49:29.537Z,22.77
2022-12-31T06:51:57.820Z,22.67
2022-12-31T06:54:26.447Z,22.50
2022-12-31T06:56:56.531Z,23.67
2022-12-31T06:59:28.040Z,22.47
2022-12-31T07:02:32.115Z,25.67
2022-12-31T07:05:12.757Z,24.07
2022-12-31T07:07:51.224Z,27.83
2022-12-31T07:10:30.277Z,23.77
2022-12-31T07:13:15.257Z,26.37
2022-12-31T07:15:54.915Z,24.53
2022-12-31T07:18:31.797Z,26.67
2022-12-31T07:21:01.520Z,22.53
2022-12-31T07:23:30.413Z,26.23
2022-12-31T07:26:16.613Z,24.03
2022-12-31T07:28:54.892Z,23.53
2022-12-31T07:31:34.579Z,24.30
2022-12-31T07:34:08.526Z,25.73
2022-12-31T07:36:55.540Z,25.93
2022-12-31T07:39:33.095Z,26.97
2022-12-31T07:42:06.228Z,26.43
2022-12-31T07:44:43.998Z,23.93
2022-12-31T07:47:21.630Z,22.80
2022-12-31T07:49:50.537Z,24.70
2022-12-31T07:52:19.684Z,24.00
2022-12-31T07:54:48.135Z,23.03
2022-12-31T07:57:18.469Z,24.13
2022-12-31T08:00:04.400Z,23.97
2022-12-31T08:03:03.682Z,21.80
2022-12-31T08:05:40.481Z,21.70
2022-12-31T08:08:23.488Z,21.37
2022-12-31T08:11:01.320Z,22.27
2022-12-31T08:13:29.844Z,21.97
2022-12-31T08:16:00.578Z,22.40
2022-12-31T08:18:29.349Z,22.23
2022-12-31T08:21:09.723Z,24.17
2022-12-31T08:23:46.387Z,23.93
2022-12-31T08:26:25.311Z,24.23
2022-12-31T08:29:18.902Z,22.37
2022-12-31T08:31:57.072Z,21.70
2022-12-31T08:34:35.118Z,21.63
2022-12-31T08:37:09.900Z,23.03
2022-12-31T08:39:56.433Z,23.47
2022-12-31T08:42:40.498Z,21.63
2022-12-31T08:45:17.020Z,23.13
2022-12-31T08:48:00.288Z,23.27
2022-12-31T08:50:29.739Z,23.67
2022-12-31T08:52:58.433Z,22.53
2022-12-31T08:55:27.284Z,24.63
2022-12-31T08:58:09.468Z,22.53
2022-12-31T09:00:39.319Z,23.37
2022-12-31T09:03:25.645Z,22.93
2022-12-31T09:06:07.382Z,22.70
2022-12-31T09:08:47.032Z,22.83
2022-12-31T09:11:23.086Z,23.37
2022-12-31T09:14:14.118Z,22.07
2022-12-31T09:16:53.287Z,22.97
2022-12-31T09:19:23.023Z,22.60
2022-12-31T09:21:51.922Z,26.23
2022-12-31T09:24:20.700Z,25.13
2022-12-31T09:27:00.370Z,24.37
2022-12-31T09:29:41.600Z,26.90
2022-12-31T09:32:20.261Z,25.83
2022-12-31T09:34:57.335Z,26.10
2022-12-31T09:37:39.650Z,24.80
2022-12-31T09:40:47.290Z,24.07
2022-12-31T09:43:36.377Z,24.93
2022-12-31T09:46:34.858Z,24.97
2022-12-31T09:49:39.438Z,25.13
2022-12-31T09:52:17.941Z,25.20
2022-12-31T09:54:54.516Z,24.17
2022-12-31T09:57:35.461Z,24.10
2022-12-31T10:00:11.133Z,27.73
2022-12-31T10:03:00.145Z,28.13
2022-12-31T10:05:49.144Z,28.27
2022-12-31T10:08:33.142Z,25.13
2022-12-31T10:11:07.187Z,24.33
2022-12-31T10:13:52.040Z,25.10
2022-12-31T10:16:53.969Z,27.20
2022-12-31T10:19:53.072Z,31.17
2022-12-31T10:23:02.400Z,27.40
2022-12-31T10:25:56.100Z,29.17
2022-12-31T10:28:32.088Z,32.13
2022-12-31T10:31:14.506Z,28.57
2022-12-31T10:33:46.498Z,26.80
2022-12-31T10:36:22.047Z,24.73
2022-12-31T10:39:12.433Z,26.57
2022-12-31T10:42:17.982Z,24.93
2022-12-31T10:45:25.116Z,24.67
2022-12-31T10:48:40.983Z,25.07
2022-12-31T10:51:50.745Z,25.53
2022-12-31T10:54:41.590Z,25.30
2022-12-31T10:57:41.890Z,24.00
2022-12-31T11:00:19.373Z,22.30
2022-12-31T11:03:29.695Z,38.43
2022-12-31T11:06:37.821Z,25.03
2022-12-31T11:09:41.914Z,22.63
2022-12-31T11:12:25.501Z,21.00
2022-12-31T11:15:14.527Z,20.57
2022-12-31T11:17:54.924Z,20.53
2022-12-31T11:20:43.985Z,19.60
2022-12-31T11:23:24.144Z,19.93
2022-12-31T11:26:04.309Z,20.50
2022-12-31T11:29:04.070Z,21.20
2022-12-31T11:31:43.259Z,20.37
2022-12-31T11:34:33.079Z,20.87
2022-12-31T11:37:17.911Z,21.23
2022-12-31T11:39:56.294Z,21.00
2022-12-31T11:42:34.654Z,21.83
2022-12-31T11:45:14.120Z,22.33
2022-12-31T11:51:03.307Z,23.90
2022-12-31T11:54:01.695Z,22.50
2022-12-31T11:56:35.804Z,23.43
2022-12-31T11:59:15.726Z,23.40
2022-12-31T12:01:56.202Z,21.93
2022-12-31T12:04:26.341Z,23.03
2022-12-31T12:06:54.965Z,22.67
2022-12-31T12:09:29.045Z,23.73
2022-12-31T12:12:01.968Z,22.00
2022-12-31T12:14:35.330Z,21.10
2022-12-31T12:17:05.831Z,21.47
2022-12-31T12:19:37.359Z,24.13
2022-12-31T12:22:12.963Z,23.97
2022-12-31T12:24:41.580Z,24.87
2022-12-31T12:27:23.594Z,24.17
2022-12-31T12:29:51.972Z,23.27
2022-12-31T12:32:22.437Z,22.53
2022-12-31T12:34:53.077Z,22.37
2022-12-31T12:37:33.197Z,23.60
2022-12-31T12:40:05.516Z,22.97
2022-12-31T12:42:34.150Z,23.13
2022-12-31T12:45:05.429Z,22.47
2022-12-31T12:47:35.139Z,23.97
2022-12-31T12:50:05.603Z,23.30
2022-12-31T12:52:55.071Z,22.80
2022-12-31T12:55:36.069Z,24.30
2022-12-31T12:58:17.107Z,24.17
2022-12-31T13:00:58.189Z,22.90
2022-12-31T13:04:07.240Z,26.30
2022-12-31T13:06:45.080Z,23.87
2022-12-31T13:09:26.725Z,23.70
2022-12-31T13:12:07.794Z,24.80
2022-12-31T13:14:48.331Z,27.37
2022-12-31T13:17:51.471Z,32.10
2022-12-31T13:20:29.847Z,28.93
2022-12-31T13:23:04.939Z,26.83
2022-12-31T13:25:46.747Z,30.20
2022-12-31T13:28:17.667Z,29.40
2022-12-31T13:30:49.648Z,28.67
2022-12-31T13:33:20.664Z,27.00
2022-12-31T13:35:53.128Z,30.67
2022-12-31T13:38:26.801Z,29.43
2022-12-31T13:41:02.078Z,29.20
2022-12-31T13:43:39.395Z,28.57
2022-12-31T13:46:17.899Z,29.53
2022-12-31T13:48:51.648Z,29.90
2022-12-31T13:51:27.490Z,27.33
2022-12-31T13:54:03.888Z,26.93
2022-12-31T13:56:37.987Z,25.43
2022-12-31T13:59:11.787Z,26.40
2022-12-31T14:01:46.661Z,27.30
2022-12-31T14:04:19.198Z,27.97
2022-12-31T14:06:53.019Z,29.67
2022-12-31T14:09:25.427Z,31.67
2022-12-31T14:12:14.456Z,28.83
2022-12-31T14:14:51.424Z,26.97
2022-12-31T14:17:29.714Z,27.07
2022-12-31T14:20:08.328Z,27.93
2022-12-31T14:22:44.912Z,26.10
2022-12-31T14:25:21.864Z,25.93
2022-12-31T14:27:53.288Z,25.80
2022-12-31T14:30:23.498Z,24.90
2022-12-31T14:33:10.771Z,24.93
2022-12-31T14:35:51.634Z,23.60
2022-12-31T14:38:28.878Z,25.43
2022-12-31T14:41:11.051Z,25.30
2022-12-31T14:43:51.607Z,27.20
2022-12-31T14:46:31.310Z,25.60
2022-12-31T14:49:15.564Z,26.97
2022-12-31T14:51:43.997Z,26.20
2022-12-31T14:54:29.083Z,25.90
2022-12-31T14:56:58.935Z,28.70
2022-12-31T14:59:32.234Z,27.83
2022-12-31T15:02:02.867Z,29.47
2022-12-31T15:04:33.774Z,29.70
2022-12-31T15:07:12.280Z,27.17
2022-12-31T15:09:59.857Z,26.30
2022-12-31T15:12:48.179Z,26.47
2022-12-31T15:15:33.569Z,27.03
2022-12-31T15:18:23.227Z,29.20
2022-12-31T15:21:11.517Z,26.77
2022-12-31T15:23:44.129Z,26.23
2022-12-31T15:26:23.784Z,26.27
2022-12-31T15:29:02.802Z,26.80
2022-12-31T15:31:33.346Z,27.50
2022-12-31T15:34:05.388Z,26.80
2022-12-31T15:36:36.410Z,29.03
2022-12-31T15:39:26.901Z,29.70
2022-12-31T15:44:52.026Z,28.97
2022-12-31T15:47:29.971Z,30.70
2022-12-31T15:50:03.015Z,30.70
2022-12-31T15:52:41.019Z,29.70
2022-12-31T15:55:14.825Z,30.43
2022-12-31T15:57:44.492Z,29.50
2022-12-31T16:00:20.026Z,29.47
2022-12-31T16:02:49.618Z,29.30
2022-12-31T16:05:23.394Z,29.20
2022-12-31T16:07:55.163Z,29.60
2022-12-31T16:10:26.611Z,28.97
2022-12-31T16:12:56.686Z,30.63
2022-12-31T16:15:30.499Z,29.47
2022-12-31T16:18:01.635Z,29.83
2022-12-31T16:20:32.761Z,28.93
2022-12-31T16:23:03.584Z,27.87
2022-12-31T16:25:33.991Z,28.13
2022-12-31T16:28:04.751Z,30.07
2022-12-31T16:30:36.935Z,30.50
2022-12-31T16:33:07.262Z,29.67
2022-12-31T16:35:37.879Z,28.07
2022-12-31T16:38:15.255Z,27.30
2022-12-31T16:40:50.855Z,28.17
2022-12-31T16:43:30.790Z,28.17
2022-12-31T16:46:10.228Z,25.03
2022-12-31T16:48:39.247Z,24.97
2022-12-31T16:51:08.111Z,31.70
2022-12-31T16:53:39.121Z,31.60
2022-12-31T16:56:10.017Z,30.13
2022-12-31T16:58:42.339Z,28.90
2022-12-31T17:01:15.893Z,26.23
2022-12-31T17:03:46.876Z,26.93
2022-12-31T17:06:18.913Z,26.33
2022-12-31T17:08:51.211Z,26.23
2022-12-31T17:11:28.754Z,25.27
2022-12-31T17:13:59.718Z,25.20
2022-12-31T17:16:29.664Z,24.90
2022-12-31T17:18:58.231Z,25.33
2022-12-31T17:21:29.489Z,25.50
2022-12-31T17:24:02.259Z,27.30
2022-12-31T17:26:33.864Z,26.73
2022-12-31T17:29:05.250Z,26.63
2022-12-31T17:31:37.002Z,24.23
2022-12-31T17:34:24.246Z,27.40
2022-12-31T17:37:17.916Z,25.27
2022-12-31T17:39:49.419Z,24.63
2022-12-31T17:42:29.488Z,24.67
2022-12-31T17:45:01.290Z,26.80
2022-12-31T17:47:37.512Z,26.00
2022-12-31T17:50:20.717Z,25.20
2022-12-31T17:52:49.233Z,23.50
2022-12-31T17:55:17.998Z,25.60
2022-12-31T17:57:52.037Z,25.97
2022-12-31T18:00:22.387Z,25.70
2022-12-31T18:02:52.114Z,26.20
2022-12-31T18:05:22.413Z,27.27
2022-12-31T18:07:50.920Z,27.63
2022-12-31T18:10:21.448Z,28.53
2022-12-31T18:12:50.531Z,28.17
2022-12-31T18:15:21.625Z,26.87
2022-12-31T18:17:52.097Z,27.20
2022-12-31T18:20:20.547Z,28.57
2022-12-31T18:22:49.429Z,32.73
2022-12-31T18:25:20.570Z,29.67
2022-12-31T18:27:49.596Z,31.30
2022-12-31T18:30:18.622Z,28.80
2022-12-31T18:32:47.814Z,30.13
2022-12-31T18:36:06.670Z,28.87
2022-12-31T18:38:12.235Z,32.97
2022-12-31T18:40:44.233Z,41.40
2022-12-31T18:43:17.447Z,34.20
2022-12-31T18:45:46.092Z,35.37
2022-12-31T18:48:14.852Z,34.30
2022-12-31T18:50:44.762Z,32.63
2022-12-31T18:53:17.545Z,32.67
2022-12-31T18:55:48.948Z,33.80
2022-12-31T18:58:17.537Z,31.50
2022-12-31T19:00:46.587Z,31.70
2022-12-31T19:03:17.304Z,31.67
2022-12-31T19:05:49.790Z,30.83
2022-12-31T19:08:18.577Z,32.43
2022-12-31T19:10:47.724Z,32.37
2022-12-31T19:13:18.071Z,34.57
2022-12-31T19:15:48.417Z,34.57
2022-12-31T19:18:17.281Z,36.67
2022-12-31T19:20:47.622Z,35.20
2022-12-31T19:23:18.225Z,34.73
2022-12-31T19:25:48.187Z,34.77
2022-12-31T19:28:18.570Z,35.90
2022-12-31T19:30:47.393Z,32.60
2022-12-31T19:33:16.142Z,32.37
2022-12-31T19:35:44.801Z,31.17
2022-12-31T19:38:19.792Z,30.40
2022-12-31T19:40:49.059Z,33.57
2022-12-31T19:43:20.133Z,33.60
2022-12-31T19:45:48.951Z,41.40
2022-12-31T19:48:20.978Z,33.67
2022-12-31T19:50:51.658Z,37.43
2022-12-31T19:53:23.576Z,40.17
2022-12-31T19:55:52.849Z,32.57
2022-12-31T19:58:22.877Z,30.37
2022-12-31T20:00:55.873Z,33.57
2022-12-31T20:03:27.244Z,32.23
2022-12-31T20:06:04.056Z,31.23
2022-12-31T20:08:34.255Z,37.20
2022-12-31T20:11:09.368Z,34.77
2022-12-31T20:13:38.391Z,34.20
2022-12-31T20:16:08.555Z,30.73
2022-12-31T20:18:38.401Z,32.40
2022-12-31T20:21:10.975Z,30.03
2022-12-31T20:23:40.851Z,30.03
2022-12-31T20:26:09.206Z,30.93
2022-12-31T20:28:38.283Z,30.17
2022-12-31T20:31:07.951Z,29.40
2022-12-31T20:33:36.905Z,31.07
2022-12-31T20:36:06.746Z,29.23
2022-12-31T20:38:35.382Z,29.47
2022-12-31T20:41:06.073Z,31.87
2022-12-31T20:43:34.991Z,30.57
2022-12-31T20:46:14.489Z,32.43
2022-12-31T20:48:44.649Z,34.97
2022-12-31T20:51:13.677Z,30.83
2022-12-31T20:53:46.155Z,32.50
2022-12-31T20:56:16.267Z,30.70
2022-12-31T20:58:44.944Z,29.70
2022-12-31T21:01:14.132Z,31.27
2022-12-31T21:06:35.184Z,30.90
2022-12-31T21:09:05.066Z,32.63
2022-12-31T21:11:52.503Z,29.43
2022-12-31T21:14:21.037Z,31.57
2022-12-31T21:16:49.359Z,28.40
2022-12-31T21:19:17.805Z,29.60
2022-12-31T21:21:48.094Z,30.10
2022-12-31T21:24:23.298Z,30.07
2022-12-31T21:26:56.589Z,28.43
2022-12-31T21:29:25.738Z,31.23
2022-12-31T21:31:56.187Z,30.47
2022-12-31T21:34:24.609Z,28.30
2022-12-31T21:36:52.982Z,29.97
2022-12-31T21:39:21.321Z,31.03
2022-12-31T21:41:52.571Z,29.67
2022-12-31T21:44:23.914Z,29.67
2022-12-31T21:47:33.325Z,29.17
2022-12-31T21:49:44.916Z,33.90
2022-12-31T21:52:30.458Z,31.27
2022-12-31T21:55:17.368Z,30.47
2022-12-31T21:58:24.323Z,31.57
2022-12-31T22:00:54.063Z,28.50
2022-12-31T22:03:27.654Z,27.93
2022-12-31T22:05:59.165Z,28.63
2022-12-31T22:08:29.251Z,29.87
2022-12-31T22:10:57.610Z,33.43
2022-12-31T22:13:26.303Z,34.07
2022-12-31T22:16:03.854Z,32.97
2022-12-31T22:18:35.838Z,31.50
2022-12-31T22:21:05.988Z,30.87
2022-12-31T22:23:35.701Z,30.03
2022-12-31T22:26:06.686Z,36.17
2022-12-31T22:28:38.708Z,35.03
2022-12-31T22:31:13.673Z,33.77
2022-12-31T22:33:42.141Z,33.47
2022-12-31T22:36:13.680Z,35.83
2022-12-31T22:38:42.221Z,31.23
2022-12-31T22:41:13.073Z,35.40
2022-12-31T22:43:43.805Z,35.80
2022-12-31T22:46:15.297Z,35.87
2022-12-31T22:48:44.046Z,34.47
2022-12-31T22:51:13.852Z,32.73
2022-12-31T22:53:43.614Z,34.60
2022-12-31T22:56:14.685Z,35.67
2022-12-31T22:58:43.177Z,31.80
2022-12-31T23:01:19.414Z,31.43
2022-12-31T23:03:47.957Z,31.53
2022-12-31T23:06:17.180Z,28.63
2022-12-31T23:09:05.921Z,33.93
2022-12-31T23:11:35.317Z,33.07
2022-12-31T23:14:22.145Z,110.13
2022-12-31T23:17:31.041Z,56.30
2022-12-31T23:20:15.678Z,66.60
2022-12-31T23:23:01.246Z,66.47
2022-12-31T23:25:32.004Z,51.50
2022-12-31T23:28:00.612Z,44.50
2022-12-31T23:30:29.326Z,43.00
2022-12-31T23:32:59.031Z,40.83
2022-12-31T23:35:27.557Z,38.83
2022-12-31T23:37:55.966Z,35.90
2022-12-31T23:40:34.380Z,35.93
2022-12-31T23:43:04.285Z,38.33
2022-12-31T23:45:33.650Z,35.87
2022-12-31T23:48:03.991Z,39.00
2022-12-31T23:50:32.484Z,39.47
2022-12-31T23:53:00.829Z,42.53
2022-12-31T23:55:29.265Z,40.43
2022-12-31T23:57:57.647Z,45.57
